Terminal Aerodrome Forecast
Issued by NWS

Home | Current Version | Previous Version | Text Only | Print | Product List | Glossary On
Versions: 1 2 3 4 5 6 7 8 9 10 11 12 13 14 15 16
132
FTUS43 KGRR 250934 AAB
TAFLAN
TAF AMD
KLAN 250934Z 2510/2606 27012G22KT P6SM VCSH OVC020
     FM251800 30012G22KT P6SM VCSH OVC035
     FM260100 31008KT P6SM FEW035=

USA.gov is the U.S. government's official web portal to all federal, state and local government web resources and services.